Pottsville, AR

4:57 PM CDT on June 02, 2015 (GMT -0500)
APRSWXNET | | Change Station
CLOSE
Current Station
Personal Weather Station
Location: Pottsville, AR
Elevation: 328 ft
Nearby Weather Stations
Active Advisory: Flood Warning Active Notice: Public Information Statement

Elev 328 ft 35.24 °N, 93.03 °W | Updated 30 minutes ago

Clear
Clear
82 °F
Feels Like 85 °F
N
1
Wind Variable Wind from SSW
Gusts 0.0 mph

Today
High -- | Low -- °F
--% Chance of Precip.
Yesterday
High -- | Low -- °F
Precip. -- in
5:58 AM 8:21 PM
Full, 100% visible
Pressure 29.99 in
Visibility 10.0 miles
Clouds Few 2800 ft
Heat Index 85 °F
Dew Point 68 °F
Humidity 63%
Rainfall in
Snow Depth Not available.
UV 8 out of 12
Pollen 7.10 out of 12
Air Quality Not available.
Flu Activity No Activity
METAR KRUE 022053Z AUTO VRB03KT 10SM FEW028 26/18 A3001 RMK AO2 SLP153 T02560178 58021

More Conditions Fewer Conditions

Pressure 29.99 in
Visibility 10.0 miles
Clouds Few 2800 ft
Heat Index 85 °F
Dew Point 68 °F
Humidity 63%
Rainfall in
Snow Depth Not available.
UV 8 out of 12
Pollen 7.10 out of 12
Air Quality Not available.
Flu Activity No Activity
METAR KRUE 022053Z AUTO VRB03KT 10SM FEW028 26/18 A3001 RMK AO2 SLP153 T02560178 58021

More Conditions Fewer Conditions

10-Day Weather Forecast

×

Almanac

Astronomy

Jun. 02, 2015 Rise Set
Actual Time
Civil Twilight
Nautical Twilight
Astronomical Twilight
Moon
Length of Visible Light
Length of Day
Tomorrow will be .
, % of the Moon is Illuminated

Today's Extremes

State Highs State Lows

Community

WunderPhotos

Upload Photos

1,826,032 photos uploaded!

WunderBlogs® & News

Nearby

Air Quality

  Air Quality AQ Index Pollutant
Not available.

Snow Depth

Station Depth Elevation

Earthquake Activity

City Distance Mag. Time & Date
Minimum magnitude displayed is 2.5.

Coastal Water Temperatures

Place Temperature

Stations

Nearby Weather Stations

Station Location Temp. Windchill Dew Point Humidity Wind Precip. Elev Updated Type
                   
Flood Warning
Statement as of 2:55 PM CDT on June 02, 2015

... Flood Warning extended until Saturday morning... the Flood Warning
continues for
the Arkansas River at Dardanelle.
* Until Saturday morning... or until the warning is cancelled.
* At 2:00 PM Tuesday the stage was 37.7 feet.
* Moderate flooding is occurring and moderate flooding is forecast.
* Flood stage is 32.0 feet.
* Forecast... the river will begin to fall later today and fall to
near 36.5 feet by Wednesday morning.
* Impacts at 36.0 feet... numerous roads and highways affected,
backwater up Petit Jean river floods State Highway 154. Carden
Bottoms and Holla Bend National Wildlife Refuge flooded.




             Fld observed forecast 7 am
location stg stg day time Wed Thu Fri Sat sun

Arkansas River
Dardanelle 32 37.7 Tue 02 PM 36.5 33.9 31.4 28.6 26.3




Lat... Lon 3508 9278 3507 9305 3522 9321 3528 9310
3519 9303 3520 9280